createdAt,value
2023-12-10T00:00:44.442Z,100.00
2023-12-10T00:03:33.994Z,99.94
2023-12-10T00:06:13.668Z,100.00
2023-12-10T00:08:45.975Z,99.87
2023-12-10T00:11:17.084Z,100.00
2023-12-10T00:13:47.344Z,99.99
2023-12-10T00:16:18.886Z,99.34
2023-12-10T00:18:48.401Z,99.08
2023-12-10T00:21:19.532Z,98.89
2023-12-10T00:23:49.604Z,99.98
2023-12-10T00:26:20.685Z,99.78
2023-12-10T00:28:50.050Z,99.27
2023-12-10T00:31:21.300Z,99.35
2023-12-10T00:33:50.955Z,99.64
2023-12-10T00:36:22.197Z,99.21
2023-12-10T00:38:53.497Z,99.05
2023-12-10T00:41:24.654Z,99.13
2023-12-10T00:43:54.024Z,99.13
2023-12-10T00:46:25.186Z,99.52
2023-12-10T00:48:54.629Z,100.00
2023-12-10T00:51:26.127Z,99.52
2023-12-10T00:53:57.226Z,98.75
2023-12-10T00:56:26.568Z,99.15
2023-12-10T00:58:57.747Z,99.69
2023-12-10T01:01:28.837Z,99.75
2023-12-10T01:03:58.323Z,99.61
2023-12-10T01:06:30.882Z,98.93
2023-12-10T01:09:01.965Z,98.63
2023-12-10T01:11:31.355Z,98.81
2023-12-10T01:14:02.535Z,98.39
2023-12-10T01:16:31.853Z,98.27
2023-12-10T01:19:03.301Z,98.24
2023-12-10T01:21:34.578Z,98.09
2023-12-10T01:24:08.024Z,98.14
2023-12-10T01:26:39.153Z,97.48
2023-12-10T01:29:10.810Z,96.41
2023-12-10T01:31:40.116Z,96.36
2023-12-10T01:34:11.513Z,95.82
2023-12-10T01:36:42.889Z,96.07
2023-12-10T01:39:12.304Z,96.83
2023-12-10T01:41:45.590Z,96.68
2023-12-10T01:44:16.711Z,95.79
2023-12-10T01:46:46.486Z,96.23
2023-12-10T01:49:19.899Z,96.58
2023-12-10T01:51:51.780Z,96.23
2023-12-10T01:54:25.652Z,96.09
2023-12-10T01:57:06.364Z,96.11
2023-12-10T01:59:39.515Z,94.87
2023-12-10T02:02:10.696Z,94.88
2023-12-10T02:04:42.127Z,94.51
2023-12-10T02:07:13.375Z,94.93
2023-12-10T02:09:42.742Z,94.40
2023-12-10T02:12:14.369Z,94.99
2023-12-10T02:14:45.754Z,95.04
2023-12-10T02:17:16.949Z,95.27
2023-12-10T02:19:48.211Z,95.89
2023-12-10T02:22:22.246Z,96.17
2023-12-10T02:24:57.979Z,95.91
2023-12-10T02:27:29.460Z,94.44
2023-12-10T02:30:00.603Z,95.14
2023-12-10T02:32:30.285Z,94.96
2023-12-10T02:35:01.600Z,95.37
2023-12-10T02:37:30.960Z,95.35
2023-12-10T02:40:02.194Z,95.05
2023-12-10T02:42:33.364Z,94.93
2023-12-10T02:45:02.840Z,95.32
2023-12-10T02:47:33.965Z,94.47
2023-12-10T02:50:03.584Z,94.46
2023-12-10T02:52:36.344Z,94.87
2023-12-10T02:55:09.849Z,94.58
2023-12-10T02:57:40.983Z,94.95
2023-12-10T03:00:11.267Z,94.96
2023-12-10T03:02:42.384Z,94.16
2023-12-10T03:05:11.841Z,93.69
2023-12-10T03:07:42.931Z,93.37
2023-12-10T03:10:14.209Z,93.96
2023-12-10T03:12:45.404Z,94.20
2023-12-10T03:15:16.910Z,94.19
2023-12-10T03:17:48.613Z,93.43
2023-12-10T03:20:19.874Z,92.52
2023-12-10T03:22:49.179Z,93.70
2023-12-10T03:25:22.041Z,94.54
2023-12-10T03:27:54.477Z,94.60
2023-12-10T03:30:23.946Z,94.46
2023-12-10T03:32:55.156Z,94.27
2023-12-10T03:35:27.981Z,94.05
2023-12-10T03:37:59.042Z,94.06
2023-12-10T03:40:30.591Z,93.90
2023-12-10T03:43:01.720Z,93.50
2023-12-10T03:45:31.142Z,93.51
2023-12-10T03:48:02.630Z,93.31
2023-12-10T03:50:34.186Z,93.05
2023-12-10T03:53:06.718Z,92.96
2023-12-10T03:55:37.823Z,93.10
2023-12-10T03:58:07.159Z,92.57
2023-12-10T04:00:38.731Z,93.13
2023-12-10T04:03:10.049Z,92.89
2023-12-10T04:05:41.366Z,93.17
2023-12-10T04:08:13.908Z,92.78
2023-12-10T04:10:44.998Z,92.21
2023-12-10T04:13:14.391Z,92.02
2023-12-10T04:15:45.744Z,91.78
2023-12-10T04:18:17.125Z,91.73
2023-12-10T04:20:48.509Z,91.98
2023-12-10T04:23:19.621Z,92.03
2023-12-10T04:25:50.824Z,91.85
2023-12-10T04:28:20.124Z,92.23
2023-12-10T04:30:51.239Z,92.19
2023-12-10T04:33:20.734Z,92.30
2023-12-10T04:35:52.139Z,92.47
2023-12-10T04:38:23.179Z,92.39
2023-12-10T04:40:54.258Z,92.28
2023-12-10T04:43:25.378Z,92.04
2023-12-10T04:45:54.933Z,92.31
2023-12-10T04:48:26.538Z,92.65
2023-12-10T04:50:57.821Z,92.81
2023-12-10T04:53:28.913Z,92.63
2023-12-10T04:56:00.044Z,92.79
2023-12-10T04:58:31.723Z,92.79
2023-12-10T05:01:02.928Z,93.28
2023-12-10T05:03:35.452Z,93.32
2023-12-10T05:06:09.296Z,93.45
2023-12-10T05:08:40.394Z,93.68
2023-12-10T05:11:09.784Z,93.88
2023-12-10T05:13:40.875Z,93.67
2023-12-10T05:16:10.520Z,94.04
2023-12-10T05:18:41.724Z,94.54
2023-12-10T05:21:12.968Z,94.58
2023-12-10T05:23:44.094Z,94.82
2023-12-10T05:26:13.446Z,95.03
2023-12-10T05:28:44.530Z,95.24
2023-12-10T05:31:17.690Z,95.06
2023-12-10T05:33:48.877Z,95.44
2023-12-10T05:36:20.199Z,95.85
2023-12-10T05:38:51.382Z,95.69
2023-12-10T05:41:22.563Z,94.97
2023-12-10T05:43:53.655Z,95.31
2023-12-10T05:46:23.104Z,95.72
2023-12-10T05:48:54.340Z,95.86
2023-12-10T05:51:25.658Z,95.98
2023-12-10T05:53:57.064Z,96.02
2023-12-10T05:56:28.882Z,95.97
2023-12-10T05:58:59.974Z,95.84
2023-12-10T06:01:29.449Z,95.91
2023-12-10T06:04:00.919Z,95.93
2023-12-10T06:06:32.138Z,95.86
2023-12-10T06:09:01.462Z,96.57
2023-12-10T06:11:32.568Z,96.26
2023-12-10T06:14:03.796Z,96.10
2023-12-10T06:16:33.274Z,96.29
2023-12-10T06:19:04.442Z,96.19
2023-12-10T06:21:35.816Z,96.11
2023-12-10T06:24:05.319Z,96.33
2023-12-10T06:26:36.900Z,96.58
2023-12-10T06:29:07.944Z,96.77
2023-12-10T06:31:37.351Z,96.75
2023-12-10T06:34:08.551Z,96.74
2023-12-10T06:36:40.248Z,96.85
2023-12-10T06:39:11.457Z,96.95
2023-12-10T06:41:42.870Z,97.32
2023-12-10T06:44:13.988Z,96.93
2023-12-10T06:46:47.765Z,97.37
2023-12-10T06:49:17.177Z,97.15
2023-12-10T06:51:48.389Z,97.69
2023-12-10T06:54:19.561Z,97.65
2023-12-10T06:56:50.756Z,98.27
2023-12-10T06:59:20.073Z,98.18
2023-12-10T07:01:56.053Z,98.95
2023-12-10T07:04:27.280Z,99.43
2023-12-10T07:06:58.671Z,99.32
2023-12-10T07:09:30.082Z,99.00
2023-12-10T07:12:02.720Z,98.84
2023-12-10T07:14:33.849Z,99.66
2023-12-10T07:17:03.300Z,99.17
2023-12-10T07:19:34.489Z,98.67
2023-12-10T07:22:05.977Z,99.40
2023-12-10T07:24:38.195Z,99.83
2023-12-10T07:27:09.612Z,99.72
2023-12-10T07:29:40.859Z,99.97
2023-12-10T07:32:13.523Z,99.96
2023-12-10T07:34:48.251Z,99.94
2023-12-10T07:37:39.459Z,100.00
2023-12-10T07:40:28.162Z,99.98
2023-12-10T07:42:59.302Z,100.00
2023-12-10T07:45:28.719Z,100.00
2023-12-10T07:48:02.103Z,99.95
2023-12-10T07:51:02.951Z,99.91
2023-12-10T07:53:36.351Z,100.00
2023-12-10T07:56:12.168Z,100.00
2023-12-10T07:59:03.476Z,100.00
2023-12-10T08:01:33.539Z,99.98
2023-12-10T08:04:05.282Z,100.00
2023-12-10T08:06:40.081Z,100.00
2023-12-10T08:09:59.087Z,100.00
2023-12-10T08:12:23.302Z,99.68
2023-12-10T08:14:54.880Z,99.97
2023-12-10T08:17:26.012Z,100.00
2023-12-10T08:19:56.970Z,100.00
2023-12-10T08:22:28.290Z,100.00
2023-12-10T08:24:59.934Z,100.00
2023-12-10T08:27:31.774Z,100.00
2023-12-10T08:30:03.019Z,100.00
2023-12-10T08:32:33.542Z,100.00
2023-12-10T08:35:09.087Z,100.00
2023-12-10T08:37:40.459Z,100.00
2023-12-10T08:40:13.810Z,100.00
2023-12-10T08:42:45.443Z,100.00
2023-12-10T08:45:19.195Z,100.00
2023-12-10T08:47:50.493Z,100.00
2023-12-10T08:50:22.446Z,100.00
2023-12-10T08:52:53.715Z,100.00
2023-12-10T08:55:45.614Z,100.00
2023-12-10T08:58:19.260Z,100.00
2023-12-10T09:00:50.469Z,100.00
2023-12-10T09:03:21.777Z,100.00
2023-12-10T09:05:53.101Z,100.00
2023-12-10T09:08:24.180Z,100.00
2023-12-10T09:10:54.184Z,100.00
2023-12-10T09:13:27.832Z,100.00
2023-12-10T09:15:59.492Z,100.00
2023-12-10T09:18:30.963Z,100.00
2023-12-10T09:21:02.396Z,100.00
2023-12-10T09:23:31.748Z,100.00
2023-12-10T09:26:02.924Z,100.00
2023-12-10T09:28:34.013Z,100.00
2023-12-10T09:31:03.680Z,100.00
2023-12-10T09:33:34.977Z,100.00
2023-12-10T09:36:08.569Z,100.00
2023-12-10T09:38:39.687Z,100.00
2023-12-10T09:41:09.182Z,100.00
2023-12-10T09:43:40.243Z,100.00
2023-12-10T09:46:09.778Z,100.00
2023-12-10T09:48:44.224Z,100.00
2023-12-10T09:51:15.468Z,100.00
2023-12-10T09:53:45.320Z,100.00
2023-12-10T09:56:16.453Z,100.00
2023-12-10T09:58:45.808Z,100.00
2023-12-10T10:01:17.276Z,100.00
2023-12-10T10:03:48.615Z,100.00
2023-12-10T10:06:19.775Z,100.00
2023-12-10T10:08:49.177Z,100.00
2023-12-10T10:11:20.307Z,100.00
2023-12-10T10:13:52.100Z,100.00
2023-12-10T10:16:23.315Z,100.00
2023-12-10T10:18:52.669Z,100.00
2023-12-10T10:21:23.915Z,100.00
2023-12-10T10:23:55.094Z,100.00
2023-12-10T10:26:27.426Z,100.00
2023-12-10T10:28:59.383Z,100.00
2023-12-10T10:31:30.931Z,100.00
2023-12-10T10:34:05.157Z,100.00
2023-12-10T10:36:36.520Z,100.00
2023-12-10T10:39:07.901Z,100.00
2023-12-10T10:41:37.338Z,100.00
2023-12-10T10:44:09.933Z,100.00
2023-12-10T10:46:41.235Z,100.00
2023-12-10T10:49:12.769Z,100.00
2023-12-10T10:51:44.090Z,100.00
2023-12-10T10:54:15.325Z,100.00
2023-12-10T10:56:47.270Z,100.00
2023-12-10T10:59:34.596Z,100.00
2023-12-10T11:02:08.218Z,100.00
2023-12-10T11:04:41.453Z,100.00
2023-12-10T11:07:15.779Z,100.00
2023-12-10T11:10:00.985Z,100.00
2023-12-10T11:12:48.632Z,100.00
2023-12-10T11:15:30.481Z,100.00
2023-12-10T11:18:03.105Z,100.00
2023-12-10T11:20:36.248Z,100.00
2023-12-10T11:23:08.419Z,100.00
2023-12-10T11:25:40.802Z,100.00
2023-12-10T11:28:13.097Z,100.00
2023-12-10T11:30:45.886Z,100.00
2023-12-10T11:33:18.097Z,100.00
2023-12-10T11:36:17.918Z,100.00
2023-12-10T11:38:48.140Z,100.00
2023-12-10T11:41:19.364Z,100.00
2023-12-10T11:43:50.564Z,100.00
2023-12-10T11:46:34.325Z,100.00
2023-12-10T11:49:31.499Z,100.00
2023-12-10T11:52:05.407Z,100.00
2023-12-10T11:54:47.463Z,100.00
2023-12-10T11:57:17.125Z,100.00
2023-12-10T11:59:52.073Z,100.00
2023-12-10T12:02:23.191Z,100.00
2023-12-10T12:04:53.244Z,100.00
2023-12-10T12:07:28.891Z,100.00
2023-12-10T12:10:00.777Z,100.00
2023-12-10T12:12:32.424Z,100.00
2023-12-10T12:15:04.058Z,100.00
2023-12-10T12:17:36.042Z,100.00
2023-12-10T12:20:18.381Z,100.00
2023-12-10T12:22:50.239Z,100.00
2023-12-10T12:25:22.445Z,100.00
2023-12-10T12:27:53.562Z,100.00
2023-12-10T12:30:22.999Z,100.00
2023-12-10T12:33:23.571Z,100.00
2023-12-10T12:35:51.958Z,100.00
2023-12-10T12:38:21.292Z,100.00
2023-12-10T12:40:52.399Z,100.00
2023-12-10T12:43:21.825Z,100.00
2023-12-10T12:45:52.983Z,100.00
2023-12-10T12:48:22.537Z,100.00
2023-12-10T12:50:54.118Z,100.00
2023-12-10T12:53:25.432Z,100.00
2023-12-10T12:55:58.483Z,100.00
2023-12-10T12:58:29.642Z,100.00
2023-12-10T13:00:59.452Z,100.00
2023-12-10T13:03:31.360Z,100.00
2023-12-10T13:06:03.001Z,100.00
2023-12-10T13:08:34.244Z,100.00
2023-12-10T13:11:07.314Z,100.00
2023-12-10T13:13:41.421Z,100.00
2023-12-10T13:16:12.663Z,100.00
2023-12-10T13:18:43.837Z,100.00
2023-12-10T13:21:20.729Z,100.00
2023-12-10T13:23:53.873Z,100.00
2023-12-10T13:26:26.858Z,100.00
2023-12-10T13:29:00.861Z,100.00
2023-12-10T13:31:32.685Z,100.00
2023-12-10T13:34:03.992Z,100.00
2023-12-10T13:36:36.615Z,100.00
2023-12-10T13:39:08.254Z,100.00
2023-12-10T13:41:39.661Z,100.00
2023-12-10T13:44:13.597Z,100.00
2023-12-10T13:46:46.253Z,100.00
2023-12-10T13:49:17.489Z,100.00
2023-12-10T13:52:11.529Z,100.00
2023-12-10T13:54:40.464Z,100.00
2023-12-10T13:57:09.857Z,100.00
2023-12-10T13:59:40.904Z,100.00
2023-12-10T14:02:13.460Z,100.00
2023-12-10T14:04:44.813Z,100.00
2023-12-10T14:07:16.136Z,100.00
2023-12-10T14:09:45.478Z,100.00
2023-12-10T14:12:16.872Z,100.00
2023-12-10T14:14:50.184Z,100.00
2023-12-10T14:17:21.360Z,100.00
2023-12-10T14:19:52.644Z,100.00
2023-12-10T14:22:22.060Z,100.00
2023-12-10T14:24:53.293Z,100.00
2023-12-10T14:27:26.079Z,100.00
2023-12-10T14:29:58.947Z,100.00
2023-12-10T14:32:32.520Z,100.00
2023-12-10T14:35:07.587Z,100.00
2023-12-10T14:37:38.679Z,100.00
2023-12-10T14:40:14.476Z,100.00
2023-12-10T14:42:45.970Z,100.00
2023-12-10T14:45:18.771Z,100.00
2023-12-10T14:47:50.025Z,100.00
2023-12-10T14:50:21.187Z,100.00
2023-12-10T14:52:50.624Z,100.00
2023-12-10T14:55:25.888Z,100.00
2023-12-10T14:58:00.399Z,100.00
2023-12-10T15:00:31.788Z,100.00
2023-12-10T15:03:03.049Z,100.00
2023-12-10T15:05:36.036Z,100.00
2023-12-10T15:08:08.869Z,100.00
2023-12-10T15:10:44.256Z,100.00
2023-12-10T15:13:16.863Z,100.00
2023-12-10T15:15:48.422Z,100.00
2023-12-10T15:18:22.739Z,100.00
2023-12-10T15:20:53.900Z,100.00
2023-12-10T15:23:23.358Z,100.00
2023-12-10T15:25:57.441Z,100.00
2023-12-10T15:28:28.604Z,100.00
2023-12-10T15:30:58.053Z,100.00
2023-12-10T15:33:30.339Z,100.00
2023-12-10T15:36:01.514Z,100.00
2023-12-10T15:38:31.542Z,100.00
2023-12-10T15:41:02.712Z,100.00
2023-12-10T15:43:33.110Z,100.00
2023-12-10T15:46:04.856Z,100.00
2023-12-10T15:48:36.199Z,100.00
2023-12-10T15:51:09.326Z,100.00
2023-12-10T15:53:40.846Z,100.00
2023-12-10T15:56:12.223Z,100.00
2023-12-10T15:58:43.359Z,100.00
2023-12-10T16:01:14.147Z,100.00
2023-12-10T16:03:47.097Z,100.00
2023-12-10T16:06:19.372Z,100.00
2023-12-10T16:08:50.749Z,100.00
2023-12-10T16:11:23.085Z,100.00
2023-12-10T16:13:54.309Z,100.00
2023-12-10T16:16:25.498Z,100.00
2023-12-10T16:18:55.171Z,100.00
2023-12-10T16:21:26.574Z,100.00
2023-12-10T16:23:57.875Z,100.00
2023-12-10T16:26:35.048Z,100.00
2023-12-10T16:29:06.301Z,100.00
2023-12-10T16:31:37.543Z,100.00
2023-12-10T16:34:08.746Z,100.00
2023-12-10T16:36:41.812Z,100.00
2023-12-10T16:39:13.070Z,100.00
2023-12-10T16:41:44.266Z,100.00
2023-12-10T16:44:13.677Z,100.00
2023-12-10T16:46:44.915Z,100.00
2023-12-10T16:49:15.177Z,100.00
2023-12-10T16:51:46.450Z,100.00
2023-12-10T16:54:17.603Z,100.00
2023-12-10T16:56:47.110Z,100.00
2023-12-10T16:59:44.234Z,100.00
2023-12-10T17:02:15.456Z,100.00
2023-12-10T17:04:49.512Z,100.00
2023-12-10T17:07:22.384Z,100.00
2023-12-10T17:09:54.709Z,100.00
2023-12-10T17:12:26.255Z,100.00
2023-12-10T17:14:58.770Z,100.00
2023-12-10T17:17:30.657Z,100.00
2023-12-10T17:20:02.367Z,100.00
2023-12-10T17:22:33.568Z,100.00
2023-12-10T17:25:08.985Z,100.00
2023-12-10T17:27:40.477Z,100.00
2023-12-10T17:30:12.944Z,100.00
2023-12-10T17:32:44.098Z,100.00
2023-12-10T17:35:15.725Z,100.00
2023-12-10T17:37:46.858Z,100.00
2023-12-10T17:40:16.370Z,100.00
2023-12-10T17:42:47.644Z,100.00
2023-12-10T17:45:19.359Z,100.00
2023-12-10T17:47:54.085Z,100.00
2023-12-10T17:50:25.405Z,100.00
2023-12-10T17:52:56.709Z,100.00
2023-12-10T17:55:30.722Z,100.00
2023-12-10T17:58:03.316Z,100.00
2023-12-10T18:00:34.636Z,100.00
2023-12-10T18:03:07.353Z,100.00
2023-12-10T18:05:38.816Z,100.00
2023-12-10T18:08:10.077Z,100.00
2023-12-10T18:10:41.876Z,100.00
2023-12-10T18:13:13.172Z,100.00
2023-12-10T18:15:54.706Z,100.00
2023-12-10T18:18:26.896Z,100.00
2023-12-10T18:20:58.028Z,100.00
2023-12-10T18:23:27.353Z,100.00
2023-12-10T18:25:59.483Z,100.00
2023-12-10T18:28:30.579Z,100.00
2023-12-10T18:31:00.405Z,100.00
2023-12-10T18:33:31.947Z,100.00
2023-12-10T18:36:03.455Z,100.00
2023-12-10T18:38:34.794Z,100.00
2023-12-10T18:41:06.353Z,100.00
2023-12-10T18:43:40.278Z,100.00
2023-12-10T18:46:16.134Z,100.00
2023-12-10T18:48:47.771Z,100.00
2023-12-10T18:51:20.618Z,100.00
2023-12-10T18:53:51.720Z,100.00
2023-12-10T18:56:21.077Z,100.00
2023-12-10T18:58:52.446Z,100.00
2023-12-10T19:01:27.437Z,100.00
2023-12-10T19:03:58.793Z,100.00
2023-12-10T19:06:31.599Z,100.00
2023-12-10T19:09:02.737Z,100.00
2023-12-10T19:11:32.383Z,100.00
2023-12-10T19:14:06.314Z,100.00
2023-12-10T19:16:37.531Z,100.00
2023-12-10T19:19:11.569Z,100.00
2023-12-10T19:21:43.114Z,100.00
2023-12-10T19:24:14.531Z,100.00
2023-12-10T19:26:46.484Z,100.00
2023-12-10T19:29:17.849Z,100.00
2023-12-10T19:32:12.395Z,100.00
2023-12-10T19:35:09.263Z,100.00
2023-12-10T19:37:36.020Z,100.00
2023-12-10T19:40:10.347Z,100.00
2023-12-10T19:42:56.061Z,100.00
2023-12-10T19:45:27.171Z,100.00
2023-12-10T19:47:57.381Z,100.00
2023-12-10T19:50:28.631Z,100.00
2023-12-10T19:52:59.965Z,100.00
2023-12-10T19:55:31.076Z,100.00
2023-12-10T19:58:00.509Z,100.00
2023-12-10T20:00:31.738Z,100.00
2023-12-10T20:03:03.790Z,100.00
2023-12-10T20:05:35.932Z,100.00
2023-12-10T20:08:13.102Z,100.00
2023-12-10T20:10:45.654Z,100.00
2023-12-10T20:13:16.916Z,100.00
2023-12-10T20:15:48.358Z,100.00
2023-12-10T20:18:23.345Z,100.00
2023-12-10T20:20:57.319Z,100.00
2023-12-10T20:23:33.119Z,100.00
2023-12-10T20:26:04.661Z,100.00
2023-12-10T20:28:38.590Z,100.00
2023-12-10T20:31:10.002Z,100.00
2023-12-10T20:33:41.488Z,100.00
2023-12-10T20:36:12.955Z,100.00
2023-12-10T20:38:44.444Z,100.00
2023-12-10T20:41:16.332Z,100.00
2023-12-10T20:45:07.559Z,100.00
2023-12-10T20:47:42.781Z,100.00
2023-12-10T20:50:14.106Z,100.00
2023-12-10T20:52:45.747Z,100.00
2023-12-10T20:55:23.098Z,100.00
2023-12-10T20:57:54.214Z,100.00
2023-12-10T21:00:25.520Z,100.00
2023-12-10T21:02:56.797Z,100.00
2023-12-10T21:05:28.292Z,100.00
2023-12-10T21:07:59.401Z,100.00
2023-12-10T21:10:28.787Z,100.00
2023-12-10T21:12:59.900Z,100.00
2023-12-10T21:15:29.305Z,100.00
2023-12-10T21:18:00.504Z,100.00
2023-12-10T21:20:31.687Z,100.00
2023-12-10T21:23:01.042Z,100.00
2023-12-10T21:25:32.181Z,100.00
2023-12-10T21:28:01.579Z,100.00
2023-12-10T21:30:33.096Z,100.00
2023-12-10T21:33:04.287Z,100.00
2023-12-10T21:35:33.704Z,100.00
2023-12-10T21:38:04.828Z,100.00
2023-12-10T21:40:34.244Z,100.00
2023-12-10T21:43:05.497Z,100.00
2023-12-10T21:45:36.670Z,100.00
2023-12-10T21:48:08.108Z,100.00
2023-12-10T21:50:39.777Z,100.00
2023-12-10T21:53:10.755Z,100.00
2023-12-10T21:55:42.008Z,100.00
2023-12-10T21:58:13.142Z,100.00
2023-12-10T22:00:44.497Z,100.00
2023-12-10T22:03:15.794Z,100.00
2023-12-10T22:05:49.417Z,100.00
2023-12-10T22:08:20.905Z,100.00
2023-12-10T22:10:52.114Z,100.00
2023-12-10T22:13:21.407Z,100.00
2023-12-10T22:15:52.519Z,100.00
2023-12-10T22:18:23.807Z,100.00
2023-12-10T22:20:54.950Z,100.00
2023-12-10T22:23:24.305Z,100.00
2023-12-10T22:25:55.486Z,100.00
2023-12-10T22:28:26.572Z,100.00
2023-12-10T22:30:55.990Z,100.00
2023-12-10T22:33:27.198Z,100.00
2023-12-10T22:35:58.305Z,100.00
2023-12-10T22:38:27.651Z,100.00
2023-12-10T22:40:58.766Z,100.00
2023-12-10T22:43:28.120Z,100.00
2023-12-10T22:46:09.276Z,100.00
2023-12-10T22:48:38.940Z,100.00
2023-12-10T22:51:10.245Z,100.00
2023-12-10T22:53:41.399Z,100.00
2023-12-10T22:56:10.896Z,100.00
2023-12-10T23:02:46.194Z,100.00
2023-12-10T23:05:17.524Z,100.00
2023-12-10T23:07:48.663Z,100.00
2023-12-10T23:10:20.165Z,100.00
2023-12-10T23:12:51.299Z,100.00
2023-12-10T23:15:20.829Z,100.00
2023-12-10T23:17:51.961Z,100.00
2023-12-10T23:20:21.426Z,100.00
2023-12-10T23:22:52.596Z,100.00
2023-12-10T23:25:21.956Z,100.00
2023-12-10T23:27:53.166Z,100.00
2023-12-10T23:30:25.467Z,100.00
2023-12-10T23:33:00.798Z,100.00
2023-12-10T23:35:32.239Z,100.00
2023-12-10T23:38:03.809Z,100.00
2023-12-10T23:40:36.496Z,100.00
2023-12-10T23:43:07.735Z,100.00
2023-12-10T23:45:49.490Z,100.00
2023-12-10T23:48:20.971Z,100.00
2023-12-10T23:50:52.277Z,100.00
2023-12-10T23:53:21.625Z,100.00
2023-12-10T23:55:52.754Z,100.00
2023-12-10T23:58:22.184Z,100.00
